Time;durP1;ratioP1;P1;durP2;ratioP2;P2;SDS_P1;SDS_P2;PMS_P1;PMS_P2;Temp;Humidity;BMP_temperature;BMP_pressure;BME280_temperature;BME280_humidity;BME280_pressure;Samples;Min_cycle;Max_cycle;Signal;HPM_P1;HPM_P2
2023/10/19 00:01:11;;;;;;;;;;;;;;;10.06;100.00;94982.53;5065934;28;19934;-67
2023/10/19 00:03:37;;;;;;;;;;;;;;;10.07;100.00;94984.09;5066042;28;19960;-68
2023/10/19 00:06:05;;;;;;;;;;;;;;;10.07;100.00;94981.50;5065808;28;20220;-68
2023/10/19 00:08:41;;;;;;;;;;;;;;;10.08;100.00;94977.84;5065749;28;19958;-67
2023/10/19 00:13:35;;;;;;;;;;;;;;;10.13;100.00;94979.72;5065711;28;19950;-67
2023/10/19 00:16:07;;;;;;;;;;;;;;;10.13;100.00;94975.25;5065921;28;19936;-81
2023/10/19 00:18:34;;;;;;;;;;;;;;;10.14;100.00;94968.19;5065611;28;19939;-75
2023/10/19 00:21:11;;;;;;;;;;;;;;;10.14;100.00;94948.03;5065581;28;19932;-76
2023/10/19 00:23:39;;;;;;;;;;;;;;;10.14;100.00;94947.22;5064566;28;19960;-75
2023/10/19 00:26:09;;;;;;;;;;;;;;;10.13;100.00;94941.19;5065414;28;19944;-75
2023/10/19 00:28:35;;;;;;;;;;;;;;;10.15;100.00;94936.50;5065667;28;19940;-74
2023/10/19 00:31:08;;;;;;;;;;;;;;;10.18;100.00;94937.03;5065354;28;19935;-76
2023/10/19 00:33:40;;;;;;;;;;;;;;;10.19;100.00;94933.41;5065890;28;20216;-81
2023/10/19 00:36:07;;;;;;;;;;;;;;;10.21;100.00;94926.06;5065296;28;19953;-74
2023/10/19 00:41:20;;;;;;;;;;;;;;;10.27;100.00;94931.09;5065157;28;19942;-76
2023/10/19 00:43:48;;;;;;;;;;;;;;;10.29;100.00;94925.56;5065845;28;19962;-75
2023/10/19 00:48:45;;;;;;;;;;;;;;;10.32;100.00;94925.13;5064854;28;19962;-76
2023/10/19 00:53:59;;;;;;;;;;;;;;;10.34;100.00;94929.06;5065778;28;19946;-66
2023/10/19 00:56:31;;;;;;;;;;;;;;;10.35;100.00;94921.97;5064496;28;20333;-69
2023/10/19 00:59:12;;;;;;;;;;;;;;;10.34;100.00;94917.78;5065594;28;19944;-69
2023/10/19 01:01:44;;;;;;;;;;;;;;;10.34;100.00;94905.47;5064694;28;19990;-69
2023/10/19 01:04:14;;;;;;;;;;;;;;;10.37;100.00;94912.03;5064705;28;19944;-70
2023/10/19 01:06:43;;;;;;;;;;;;;;;10.39;100.00;94896.06;5065214;28;19938;-70
2023/10/19 01:09:14;;;;;;;;;;;;;;;10.40;100.00;94892.41;5064836;28;19947;-70
2023/10/19 01:11:49;;;;;;;;;;;;;;;10.42;100.00;94891.09;5065406;28;19934;-72
2023/10/19 01:14:21;;;;;;;;;;;;;;;10.44;100.00;94872.53;5064591;28;19937;-74
2023/10/19 01:16:48;;;;;;;;;;;;;;;10.44;100.00;94865.44;5064450;28;19946;-75
2023/10/19 01:19:18;;;;;;;;;;;;;;;10.45;100.00;94879.31;5064378;28;19934;-75
2023/10/19 01:21:51;;;;;;;;;;;;;;;10.45;100.00;94872.25;5065177;28;19945;-75
2023/10/19 01:24:20;;;;;;;;;;;;;;;10.46;100.00;94873.84;5065168;28;19942;-75
2023/10/19 01:26:47;;;;;;;;;;;;;;;10.48;100.00;94884.06;5064517;28;19938;-76
2023/10/19 01:29:14;;;;;;;;;;;;;;;10.49;100.00;94880.38;5064273;28;19939;-71
2023/10/19 01:31:52;;;;;;;;;;;;;;;10.49;100.00;94875.94;5064231;28;19941;-75
2023/10/19 01:34:21;;;;;;;;;;;;;;;10.52;100.00;94874.63;5064058;28;19949;-75
2023/10/19 01:36:50;;;;;;;;;;;;;;;10.52;100.00;94867.56;5064130;28;19934;-75
2023/10/19 01:39:18;;;;;;;;;;;;;;;10.55;100.00;94863.66;5064934;28;19938;-74
2023/10/19 01:41:44;;;;;;;;;;;;;;;10.55;100.00;94856.56;5064051;28;19960;-74
2023/10/19 01:44:13;;;;;;;;;;;;;;;10.56;100.00;94850.28;5064096;28;19945;-75
2023/10/19 01:46:39;;;;;;;;;;;;;;;10.57;100.00;94851.06;5063998;28;19960;-76
2023/10/19 01:49:05;;;;;;;;;;;;;;;10.57;100.00;94849.22;5063909;28;19958;-79
2023/10/19 01:51:38;;;;;;;;;;;;;;;10.56;100.00;94836.38;5064587;28;19936;-70
2023/10/19 01:54:06;;;;;;;;;;;;;;;10.56;100.00;94831.13;5064796;28;20216;-70
2023/10/19 01:56:35;;;;;;;;;;;;;;;10.59;100.00;94841.13;5063926;28;19934;-72
2023/10/19 01:59:01;;;;;;;;;;;;;;;10.60;100.00;94841.91;5063921;28;20210;-70
2023/10/19 02:04:03;;;;;;;;;;;;;;;10.61;100.00;94843.50;5063701;28;19973;-71
2023/10/19 02:06:36;;;;;;;;;;;;;;;10.62;100.00;94845.84;5064445;28;19991;-70
2023/10/19 02:09:21;;;;;;;;;;;;;;;10.61;100.00;94849.50;5064397;28;19939;-77
2023/10/19 02:11:48;;;;;;;;;;;;;;;10.59;100.00;94841.13;5064677;28;20105;-79
2023/10/19 02:14:14;;;;;;;;;;;;;;;10.60;100.00;94839.28;5063803;28;19936;-79
2023/10/19 02:16:41;;;;;;;;;;;;;;;10.57;100.00;94836.13;5064539;28;19948;-79
2023/10/19 02:19:07;;;;;;;;;;;;;;;10.55;100.00;94829.56;5063615;28;20235;-79
2023/10/19 02:21:39;;;;;;;;;;;;;;;10.53;100.00;94823.81;5063715;28;19944;-79
2023/10/19 02:24:07;;;;;;;;;;;;;;;10.50;100.00;94832.97;5063911;28;19948;-75
2023/10/19 02:26:33;;;;;;;;;;;;;;;10.48;100.00;94834.28;5063695;28;19944;-73
2023/10/19 02:28:59;;;;;;;;;;;;;;;10.44;100.00;94823.50;5064422;28;19943;-73
2023/10/19 02:31:25;;;;;;;;;;;;;;;10.43;100.00;94821.13;5063542;28;19932;-72
2023/10/19 02:33:58;;;;;;;;;;;;;;;10.41;100.00;94821.38;5063607;28;19948;-73
2023/10/19 02:36:28;;;;;;;;;;;;;;;10.39;100.00;94817.44;5063561;28;20243;-72
2023/10/19 02:38:58;;;;;;;;;;;;;;;10.39;100.00;94826.09;5063558;28;19933;-73
2023/10/19 02:41:26;;;;;;;;;;;;;;;10.37;100.00;94822.94;5063446;28;19942;-73
2023/10/19 02:46:53;;;;;;;;;;;;;;;10.34;100.00;94819.00;5056659;28;19936;-74
2023/10/19 02:49:20;;;;;;;;;;;;;;;10.34;100.00;94819.00;5067773;28;19946;-75
2023/10/19 02:51:47;;;;;;;;;;;;;;;10.31;100.00;94801.19;5067230;28;19949;-74
2023/10/19 02:54:22;;;;;;;;;;;;;;;10.29;100.00;94805.06;5066857;28;19943;-77
2023/10/19 02:56:58;;;;;;;;;;;;;;;10.26;100.00;94803.75;5066801;28;19948;-75
2023/10/19 02:59:25;;;;;;;;;;;;;;;10.27;100.00;94805.34;5067099;28;19982;-75
2023/10/19 03:01:53;;;;;;;;;;;;;;;10.27;100.00;94796.69;5067542;28;19937;-79
2023/10/19 03:04:19;;;;;;;;;;;;;;;10.26;100.00;94795.09;5067435;28;19974;-76
2023/10/19 03:06:45;;;;;;;;;;;;;;;10.25;100.00;94793.53;5066998;28;20137;-75
2023/10/19 03:11:53;;;;;;;;;;;;;;;10.21;100.00;94787.25;5066928;28;19934;-75
2023/10/19 03:14:19;;;;;;;;;;;;;;;10.20;100.00;94786.44;5067319;28;20102;-75
2023/10/19 03:16:45;;;;;;;;;;;;;;;10.15;100.00;94789.03;5065915;28;19947;-75
2023/10/19 03:19:12;;;;;;;;;;;;;;;10.10;100.00;94783.75;5066681;28;19950;-73
2023/10/19 03:22:14;;;;;;;;;;;;;;;10.05;100.00;94783.75;5067257;28;19935;-68
2023/10/19 03:24:43;;;;;;;;;;;;;;;10.02;100.00;94785.06;5064666;28;19940;-80
2023/10/19 03:27:17;;;;;;;;;;;;;;;10.01;100.00;94782.69;5066613;28;20121;-80
2023/10/19 03:29:48;;;;;;;;;;;;;;;10.01;100.00;94787.91;5067379;28;19932;-79
2023/10/19 03:32:15;;;;;;;;;;;;;;;10.00;100.00;94781.13;5067030;28;19941;-79
2023/10/19 03:34:47;;;;;;;;;;;;;;;9.99;100.00;94776.91;5067204;28;19966;-78
2023/10/19 03:37:14;;;;;;;;;;;;;;;9.97;100.00;94774.53;5066648;28;19938;-79
2023/10/19 03:39:41;;;;;;;;;;;;;;;9.96;100.00;94773.75;5067167;28;20204;-72
2023/10/19 03:42:07;;;;;;;;;;;;;;;9.96;100.00;94762.50;5066236;28;19944;-77
2023/10/19 03:47:19;;;;;;;;;;;;;;;9.94;100.00;94760.13;5066660;28;19981;-77
2023/10/19 03:49:46;;;;;;;;;;;;;;;9.94;100.00;94760.13;5066694;28;19944;-75
2023/10/19 03:54:39;;;;;;;;;;;;;;;9.94;100.00;94751.50;5066922;28;19973;-76
2023/10/19 03:57:11;;;;;;;;;;;;;;;9.94;100.00;94754.13;5065643;28;19937;-71
2023/10/19 03:59:41;;;;;;;;;;;;;;;9.95;100.00;94751.25;5065903;28;20077;-72
2023/10/19 04:02:13;;;;;;;;;;;;;;;9.96;100.00;94754.66;5066433;28;19928;-74
2023/10/19 04:04:43;;;;;;;;;;;;;;;9.95;100.00;94739.97;5066419;28;19929;-73
2023/10/19 04:07:20;;;;;;;;;;;;;;;10.11;100.00;94732.97;5066617;28;19940;-73
2023/10/19 04:10:29;;;;;;;;;;;;;;;10.37;100.00;94733.84;5065848;28;19935;-72
2023/10/19 04:12:37;;;;;;;;;;;;;;;10.60;100.00;94727.34;5057861;28;19939;-73
2023/10/19 04:15:10;;;;;;;;;;;;;;;10.77;100.00;94730.53;5065751;28;19939;-69
2023/10/19 04:17:36;;;;;;;;;;;;;;;10.92;100.00;94723.75;5065935;28;19934;-73
2023/10/19 04:20:20;;;;;;;;;;;;;;;11.04;100.00;94726.09;5065591;28;20265;-73
2023/10/19 04:22:47;;;;;;;;;;;;;;;11.15;100.00;94728.44;5065556;28;19954;-73
2023/10/19 04:25:15;;;;;;;;;;;;;;;11.24;100.00;94727.91;5066304;28;19929;-73
2023/10/19 04:27:42;;;;;;;;;;;;;;;11.30;100.00;94719.00;5065480;28;20118;-73
2023/10/19 04:30:21;;;;;;;;;;;;;;;11.29;100.00;94718.19;5065332;28;19933;-74
2023/10/19 04:32:48;;;;;;;;;;;;;;;11.17;100.00;94715.03;5065569;28;19935;-70
2023/10/19 04:35:21;;;;;;;;;;;;;;;11.02;100.00;94715.84;5065208;28;19961;-68
2023/10/19 04:37:50;;;;;;;;;;;;;;;10.87;100.00;94721.88;5065814;28;19961;-73
2023/10/19 04:40:16;;;;;;;;;;;;;;;10.73;100.00;94719.00;5065127;28;19937;-73
2023/10/19 04:42:42;;;;;;;;;;;;;;;10.61;100.00;94718.47;5065561;28;20131;-73
2023/10/19 04:45:08;;;;;;;;;;;;;;;10.53;100.00;94721.59;5065810;28;19940;-75
2023/10/19 04:47:35;;;;;;;;;;;;;;;10.45;100.00;94722.88;5065073;28;19974;-73
2023/10/19 04:50:02;;;;;;;;;;;;;;;10.38;100.00;94708.47;5065046;28;20131;-73
2023/10/19 04:52:28;;;;;;;;;;;;;;;10.33;100.00;94709.22;5065726;28;20130;-70
2023/10/19 04:54:54;;;;;;;;;;;;;;;10.28;100.00;94701.31;5064944;28;19936;-75
2023/10/19 04:57:23;;;;;;;;;;;;;;;10.22;100.00;94702.34;5065625;28;19941;-75
2023/10/19 04:59:49;;;;;;;;;;;;;;;10.18;100.00;94698.69;5064770;28;19932;-76
2023/10/19 05:02:15;;;;;;;;;;;;;;;10.17;100.00;94700.50;5064773;28;19931;-77
2023/10/19 05:04:42;;;;;;;;;;;;;;;10.18;100.00;94696.84;5064899;28;19953;-76
2023/10/19 05:07:11;;;;;;;;;;;;;;;10.17;100.00;94705.75;5064626;28;20118;-78
2023/10/19 05:09:39;;;;;;;;;;;;;;;10.13;100.00;94700.22;5064171;28;19936;-78
2023/10/19 05:12:09;;;;;;;;;;;;;;;10.12;100.00;94692.63;5063454;28;20212;-70
2023/10/19 05:14:35;;;;;;;;;;;;;;;10.18;100.00;94703.91;5064438;28;19978;-73
2023/10/19 05:17:04;;;;;;;;;;;;;;;10.41;100.00;94700.84;5064524;28;20154;-72
2023/10/19 05:19:30;;;;;;;;;;;;;;;10.51;100.00;94703.50;5064402;28;20120;-72
2023/10/19 05:21:56;;;;;;;;;;;;;;;10.50;100.00;94698.53;5064434;28;19937;-74
2023/10/19 05:24:22;;;;;;;;;;;;;;;10.46;100.00;94698.25;5064278;28;19957;-73
2023/10/19 05:26:49;;;;;;;;;;;;;;;10.42;100.00;94699.03;5064313;28;19929;-73
2023/10/19 05:29:15;;;;;;;;;;;;;;;10.37;100.00;94694.56;5064292;28;19947;-79
2023/10/19 05:31:41;;;;;;;;;;;;;;;10.33;100.00;94699.53;5064291;28;20113;-73
2023/10/19 05:34:08;;;;;;;;;;;;;;;10.31;100.00;94695.59;5064141;28;19944;-72
2023/10/19 05:36:34;;;;;;;;;;;;;;;10.29;100.00;94695.03;5064097;28;19994;-72
2023/10/19 05:38:59;;;;;;;;;;;;;;;10.26;100.00;94691.09;5064139;28;20222;-73
2023/10/19 05:41:26;;;;;;;;;;;;;;;10.24;100.00;94682.72;5064871;28;19928;-73
2023/10/19 05:43:53;;;;;;;;;;;;;;;10.22;100.00;94684.81;5064513;28;19956;-72
2023/10/19 05:46:21;;;;;;;;;;;;;;;10.19;100.00;94687.16;5063929;28;19938;-70
2023/10/19 05:48:49;;;;;;;;;;;;;;;10.19;100.00;94695.03;5063905;28;20197;-70
2023/10/19 05:51:15;;;;;;;;;;;;;;;10.20;100.00;94696.59;5063949;28;19949;-74
2023/10/19 05:53:41;;;;;;;;;;;;;;;10.19;100.00;94685.31;5064481;28;20128;-74
2023/10/19 05:56:07;;;;;;;;;;;;;;;10.19;100.00;94695.81;5063900;28;19938;-74
2023/10/19 05:58:33;;;;;;;;;;;;;;;10.20;100.00;94688.72;5063995;28;19938;-74
2023/10/19 06:00:59;;;;;;;;;;;;;;;10.23;100.00;94685.59;5063846;28;19986;-74
2023/10/19 06:03:25;;;;;;;;;;;;;;;10.30;100.00;94692.19;5063809;28;19960;-75
2023/10/19 06:05:50;;;;;;;;;;;;;;;10.41;100.00;94692.22;5063832;28;19936;-70
2023/10/19 06:08:16;;;;;;;;;;;;;;;10.56;100.00;94689.59;5063748;28;19967;-71
2023/10/19 06:10:42;;;;;;;;;;;;;;;10.76;100.00;94686.22;5064545;28;19939;-71
2023/10/19 06:13:11;;;;;;;;;;;;;;;11.01;100.00;94688.06;5064338;28;19936;-70
2023/10/19 06:15:37;;;;;;;;;;;;;;;11.08;100.00;94691.19;5063716;28;19946;-76
2023/10/19 06:18:03;;;;;;;;;;;;;;;11.06;100.00;94685.41;5064357;28;19932;-77
2023/10/19 06:20:29;;;;;;;;;;;;;;;11.02;100.00;94679.13;5063712;28;19934;-76
2023/10/19 06:22:56;;;;;;;;;;;;;;;10.95;100.00;94687.25;5067404;28;19944;-78
2023/10/19 06:25:23;;;;;;;;;;;;;;;10.95;100.00;94687.25;5067737;28;19939;-78
2023/10/19 06:27:49;;;;;;;;;;;;;;;10.93;100.00;94678.88;5066634;28;19940;-76
2023/10/19 06:30:18;;;;;;;;;;;;;;;10.91;100.00;94685.44;5067616;28;20121;-77
2023/10/19 06:32:47;;;;;;;;;;;;;;;10.89;100.00;94692.78;5067618;28;20213;-77
2023/10/19 06:35:13;;;;;;;;;;;;;;;10.86;100.00;94688.06;5067450;28;19954;-77
2023/10/19 06:37:40;;;;;;;;;;;;;;;10.85;100.00;94689.88;5068345;28;19952;-77
2023/10/19 06:40:06;;;;;;;;;;;;;;;10.85;100.00;94682.03;5067555;28;19934;-76
2023/10/19 06:42:32;;;;;;;;;;;;;;;10.85;100.00;94687.25;5067440;28;19934;-77
2023/10/19 06:44:58;;;;;;;;;;;;;;;10.85;100.00;94683.84;5068109;28;20165;-78
2023/10/19 06:47:24;;;;;;;;;;;;;;;10.86;100.00;94685.44;5067204;28;19970;-78
2023/10/19 06:49:50;;;;;;;;;;;;;;;10.85;100.00;94682.03;5067850;28;20016;-78
2023/10/19 06:52:15;;;;;;;;;;;;;;;10.86;100.00;94682.81;5067436;28;20133;-78
2023/10/19 06:54:41;;;;;;;;;;;;;;;10.87;100.00;94673.91;5067997;28;19932;-78
2023/10/19 06:57:08;;;;;;;;;;;;;;;10.88;100.00;94680.72;5067171;28;19930;-79
2023/10/19 06:59:37;;;;;;;;;;;;;;;10.89;100.00;94671.78;5067084;28;19932;-78
2023/10/19 07:02:03;;;;;;;;;;;;;;;10.91;100.00;94674.94;5067619;28;19934;-73
2023/10/19 07:04:29;;;;;;;;;;;;;;;10.92;100.00;94666.03;5066944;28;19993;-70
2023/10/19 07:06:55;;;;;;;;;;;;;;;10.96;100.00;94669.69;5066986;28;19939;-70
2023/10/19 07:09:22;;;;;;;;;;;;;;;10.96;100.00;94672.31;5066859;28;19934;-70
2023/10/19 07:11:47;;;;;;;;;;;;;;;11.00;100.00;94673.34;5066911;28;19941;-70
2023/10/19 07:14:13;;;;;;;;;;;;;;;11.04;100.00;94671.00;5066818;28;20037;-70
2023/10/19 07:16:40;;;;;;;;;;;;;;;11.07;100.00;94679.13;5067564;28;19985;-70
2023/10/19 07:19:06;;;;;;;;;;;;;;;11.10;100.00;94675.19;5066727;28;19937;-70
2023/10/19 07:21:35;;;;;;;;;;;;;;;11.12;100.00;94668.63;5066678;28;19943;-71
2023/10/19 07:24:05;;;;;;;;;;;;;;;11.16;100.00;94669.66;5066559;28;19959;-71
2023/10/19 07:26:33;;;;;;;;;;;;;;;11.21;100.00;94676.75;5067331;28;19945;-71
2023/10/19 07:28:59;;;;;;;;;;;;;;;11.24;100.00;94663.09;5067055;28;19936;-71
2023/10/19 07:31:27;;;;;;;;;;;;;;;11.28;100.00;94666.78;5066524;28;19940;-72
2023/10/19 07:33:55;;;;;;;;;;;;;;;11.34;100.00;94668.34;5066535;28;19932;-71
2023/10/19 07:36:21;;;;;;;;;;;;;;;11.40;100.00;94679.59;5067160;28;19941;-72
2023/10/19 07:38:47;;;;;;;;;;;;;;;11.45;100.00;94676.97;5067211;28;19945;-72
2023/10/19 07:41:13;;;;;;;;;;;;;;;11.51;100.00;94672.50;5066265;28;19941;-71
2023/10/19 07:43:39;;;;;;;;;;;;;;;11.56;100.00;94672.47;5066641;28;19956;-71
2023/10/19 07:46:05;;;;;;;;;;;;;;;11.61;100.00;94664.56;5066783;28;19934;-71
2023/10/19 07:48:32;;;;;;;;;;;;;;;11.68;100.00;94661.69;5065987;28;19966;-71
2023/10/19 07:50:58;;;;;;;;;;;;;;;11.72;100.00;94660.09;5066131;28;19943;-72
2023/10/19 07:53:25;;;;;;;;;;;;;;;11.77;100.00;94650.34;5066205;28;19945;-71
2023/10/19 07:55:51;;;;;;;;;;;;;;;11.84;100.00;94654.50;5066908;28;20108;-70
2023/10/19 07:58:18;;;;;;;;;;;;;;;11.91;100.00;94658.47;5066020;28;19966;-72
2023/10/19 08:00:46;;;;;;;;;;;;;;;11.99;100.00;94662.38;5066641;28;20126;-72
2023/10/19 08:03:15;;;;;;;;;;;;;;;12.09;100.00;94666.78;5066562;28;19939;-72
2023/10/19 08:05:41;;;;;;;;;;;;;;;12.19;100.00;94662.25;5066518;28;19941;-72
2023/10/19 08:08:07;;;;;;;;;;;;;;;12.30;100.00;94668.22;5065752;28;19934;-72
2023/10/19 08:10:34;;;;;;;;;;;;;;;12.41;100.00;94668.16;5065631;28;19931;-72
2023/10/19 08:13:01;;;;;;;;;;;;;;;12.54;100.00;94662.31;5065697;28;19939;-71
2023/10/19 08:15:28;;;;;;;;;;;;;;;12.67;100.00;94666.94;5066269;28;19943;-73
2023/10/19 08:17:54;;;;;;;;;;;;;;;12.77;100.00;94660.84;5066188;28;19938;-77
2023/10/19 08:20:23;;;;;;;;;;;;;;;12.85;100.00;94664.69;5065590;28;19953;-78
2023/10/19 08:22:53;;;;;;;;;;;;;;;12.88;100.00;94657.06;5065528;28;19940;-78
2023/10/19 08:25:19;;;;;;;;;;;;;;;12.94;100.00;94658.56;5065930;28;20141;-79
2023/10/19 08:27:45;;;;;;;;;;;;;;;12.97;100.00;94651.97;5065957;28;19939;-78
2023/10/19 08:30:13;;;;;;;;;;;;;;;13.00;100.00;94656.69;5065408;28;19936;-78
2023/10/19 08:32:39;;;;;;;;;;;;;;;13.05;100.00;94650.59;5065338;28;20231;-72
2023/10/19 08:35:06;;;;;;;;;;;;;;;13.10;100.00;94648.72;5065534;28;20148;-71
2023/10/19 08:37:31;;;;;;;;;;;;;;;13.17;100.00;94640.50;5065254;28;19946;-71
2023/10/19 08:40:01;;;;;;;;;;;;;;;13.24;100.00;94637.53;5064902;28;20016;-71
2023/10/19 08:42:30;;;;;;;;;;;;;;;13.30;100.00;94637.22;5065118;28;19939;-71
2023/10/19 08:44:56;;;;;;;;;;;;;;;13.35;100.00;94641.63;5064895;28;20125;-71
2023/10/19 08:47:25;;;;;;;;;;;;;;;13.38;100.00;94641.09;5064867;28;19993;-71
2023/10/19 08:49:52;;;;;;;;;;;;;;;13.44;100.00;94647.06;5065042;28;19942;-71
2023/10/19 08:52:22;;;;;;;;;;;;;;;13.48;100.00;94648.91;5065257;28;19941;-78
2023/10/19 08:54:48;;;;;;;;;;;;;;;13.53;100.00;94648.81;5065226;28;19944;-69
2023/10/19 08:57:14;;;;;;;;;;;;;;;13.56;100.00;94648.25;5064866;28;19945;-70
2023/10/19 08:59:40;;;;;;;;;;;;;;;13.58;100.00;94643.50;5064862;28;19940;-70
2023/10/19 09:02:06;;;;;;;;;;;;;;;13.66;100.00;94642.09;5065372;28;19935;-70
2023/10/19 09:04:32;;;;;;;;;;;;;;;13.74;100.00;94636.22;5064702;28;19963;-70
2023/10/19 09:06:59;;;;;;;;;;;;;;;13.86;100.00;94635.00;5065528;28;19947;-70
2023/10/19 09:09:28;;;;;;;;;;;;;;;13.96;100.00;94629.59;5064639;28;19961;-78
2023/10/19 09:11:54;;;;;;;;;;;;;;;14.05;100.00;94627.94;5064634;28;19945;-70
2023/10/19 09:14:33;;;;;;;;;;;;;;;14.12;100.00;94617.03;5063442;28;19940;-70
2023/10/19 09:17:00;;;;;;;;;;;;;;;14.20;100.00;94619.78;5063829;28;20220;-70
2023/10/19 09:19:39;;;;;;;;;;;;;;;14.26;100.00;94623.16;5064514;28;19935;-70
2023/10/19 09:22:07;;;;;;;;;;;;;;;14.32;100.00;94621.22;5063332;28;19950;-70
2023/10/19 09:24:34;;;;;;;;;;;;;;;14.35;100.00;94623.28;5064316;28;20132;-70
2023/10/19 09:27:01;;;;;;;;;;;;;;;14.38;100.00;94622.72;5064382;28;19937;-73
2023/10/19 09:29:27;;;;;;;;;;;;;;;14.43;100.00;94609.47;5064387;28;19941;-77
2023/10/19 09:31:56;;;;;;;;;;;;;;;14.45;100.00;94612.59;5046921;28;20144;-77
2023/10/19 09:34:23;;;;;;;;;;;;;;;14.47;100.00;94610.47;5064623;28;19952;-78
2023/10/19 09:36:49;;;;;;;;;;;;;;;14.47;100.00;94617.56;5064199;28;19935;-77
2023/10/19 09:39:16;;;;;;;;;;;;;;;14.44;100.00;94612.88;5064231;28;19937;-78
2023/10/19 09:41:42;;;;;;;;;;;;;;;14.41;100.00;94620.28;5064198;28;19938;-77
2023/10/19 09:44:10;;;;;;;;;;;;;;;14.37;100.00;94614.03;5064608;28;19949;-77
2023/10/19 09:46:38;;;;;;;;;;;;;;;14.37;100.00;94618.50;5064080;28;19940;-77
2023/10/19 09:49:06;;;;;;;;;;;;;;;14.34;100.00;94627.78;5063968;28;19964;-71
2023/10/19 09:51:33;;;;;;;;;;;;;;;14.34;100.00;94619.88;5063945;28;20138;-72
2023/10/19 09:54:09;;;;;;;;;;;;;;;14.36;100.00;94614.28;5064780;28;19933;-71
2023/10/19 09:56:44;;;;;;;;;;;;;;;14.39;100.00;94624.28;5064490;28;19939;-72
2023/10/19 09:59:18;;;;;;;;;;;;;;;14.41;100.00;94622.94;5063984;28;19938;-72
2023/10/19 10:02:21;;;;;;;;;;;;;;;14.47;100.00;94617.56;5064450;28;20112;-71
2023/10/19 10:04:48;;;;;;;;;;;;;;;14.52;100.00;94618.28;5022479;28;19950;-73
2023/10/19 10:07:15;;;;;;;;;;;;;;;14.59;100.00;94618.75;5056110;28;20123;-72
2023/10/19 10:09:46;;;;;;;;;;;;;;;14.63;100.00;94620.78;5063842;28;19938;-71
2023/10/19 10:12:17;;;;;;;;;;;;;;;14.65;100.00;94614.16;5064622;28;19945;-71
2023/10/19 10:15:13;;;;;;;;;;;;;;;14.66;100.00;94613.09;5063813;28;19943;-72
2023/10/19 10:17:39;;;;;;;;;;;;;;;14.70;100.00;94621.19;5055440;28;19948;-72
2023/10/19 10:20:14;;;;;;;;;;;;;;;14.75;100.00;94616.63;5063814;28;19937;-71
2023/10/19 10:22:43;;;;;;;;;;;;;;;14.78;100.00;94615.25;5063974;28;20120;-73
2023/10/19 10:25:25;;;;;;;;;;;;;;;14.83;100.00;94612.56;5063686;28;19961;-70
2023/10/19 10:27:51;;;;;;;;;;;;;;;14.86;100.00;94617.25;5064528;28;19948;-71
2023/10/19 10:30:17;;;;;;;;;;;;;;;14.87;100.00;94624.09;5064413;28;19946;-72
2023/10/19 10:32:52;;;;;;;;;;;;;;;14.88;100.00;94627.50;5063599;28;19937;-71
2023/10/19 10:35:37;;;;;;;;;;;;;;;14.87;100.00;94637.28;5064053;28;20245;-72
2023/10/19 10:38:08;;;;;;;;;;;;;;;14.86;100.00;94635.72;5063591;28;19934;-71
2023/10/19 10:40:48;;;;;;;;;;;;;;;14.87;100.00;94631.25;5064320;28;19939;-76
2023/10/19 10:43:15;;;;;;;;;;;;;;;14.87;100.00;94633.88;5064010;28;19941;-72
2023/10/19 10:45:41;;;;;;;;;;;;;;;14.86;100.00;94627.78;5063958;28;19959;-75
2023/10/19 10:48:13;;;;;;;;;;;;;;;14.87;100.00;94625.97;5063327;28;20018;-77
2023/10/19 10:50:41;;;;;;;;;;;;;;;14.86;100.00;94627.78;5064042;28;19941;-75
2023/10/19 10:53:07;;;;;;;;;;;;;;;14.84;100.00;94623.88;5063502;28;19938;-76
2023/10/19 10:55:33;;;;;;;;;;;;;;;14.81;100.00;94615.47;5063919;28;19939;-76
2023/10/19 10:57:59;;;;;;;;;;;;;;;14.78;100.00;94623.19;5064210;28;19942;-76
2023/10/19 11:00:28;;;;;;;;;;;;;;;14.74;100.00;94619.53;5063944;28;20114;-77
2023/10/19 11:03:04;;;;;;;;;;;;;;;14.70;100.00;94624.63;5063335;28;19961;-76
2023/10/19 11:05:35;;;;;;;;;;;;;;;14.68;100.00;94615.41;5063266;28;19960;-76
2023/10/19 11:08:03;;;;;;;;;;;;;;;14.66;100.00;94607.00;5065344;28;20008;-77
2023/10/19 11:10:30;;;;;;;;;;;;;;;14.64;100.00;94617.88;5066893;28;19931;-77
2023/10/19 11:13:03;;;;;;;;;;;;;;;14.61;100.00;94618.44;5067041;28;19943;-76
2023/10/19 11:15:29;;;;;;;;;;;;;;;14.59;100.00;94615.31;5066815;28;19927;-76
2023/10/19 11:17:54;;;;;;;;;;;;;;;14.57;100.00;94620.88;5066781;28;20274;-76
2023/10/19 11:20:21;;;;;;;;;;;;;;;14.55;100.00;94612.47;5049074;28;19933;-72
2023/10/19 11:22:48;;;;;;;;;;;;;;;14.54;100.00;94612.72;5066649;28;19940;-70
2023/10/19 11:25:17;;;;;;;;;;;;;;;14.56;100.00;94598.19;5067400;28;20226;-70
2023/10/19 11:27:43;;;;;;;;;;;;;;;14.57;100.00;94589.22;5067135;28;19944;-70
2023/10/19 11:30:11;;;;;;;;;;;;;;;14.59;100.00;94581.00;5067132;28;19956;-70
2023/10/19 11:32:40;;;;;;;;;;;;;;;14.60;100.00;94577.31;5067068;28;19942;-71
2023/10/19 11:35:09;;;;;;;;;;;;;;;14.63;100.00;94579.34;5066396;28;19961;-71
2023/10/19 11:37:55;;;;;;;;;;;;;;;14.63;100.00;94560.13;5067175;28;19933;-70
2023/10/19 11:40:21;;;;;;;;;;;;;;;14.61;100.00;94548.03;5066380;28;19928;-77
2023/10/19 11:42:47;;;;;;;;;;;;;;;14.59;100.00;94541.44;5066377;28;20097;-77
2023/10/19 11:45:13;;;;;;;;;;;;;;;14.58;100.00;94539.88;5066244;28;19949;-77
2023/10/19 11:47:39;;;;;;;;;;;;;;;14.55;100.00;94535.97;5066118;28;20282;-77
2023/10/19 11:50:05;;;;;;;;;;;;;;;14.54;100.00;94539.66;5065002;28;19940;-77
2023/10/19 11:52:31;;;;;;;;;;;;;;;14.54;100.00;94528.31;5066683;28;19961;-78
2023/10/19 11:54:57;;;;;;;;;;;;;;;14.52;100.00;94514.66;5066084;28;19938;-75
2023/10/19 11:57:26;;;;;;;;;;;;;;;14.52;100.00;94489.03;5066015;28;19943;-70
2023/10/19 11:59:54;;;;;;;;;;;;;;;14.51;100.00;94469.03;5066060;28;19959;-72
2023/10/19 12:02:20;;;;;;;;;;;;;;;14.51;100.00;94482.22;5066490;28;19934;-72
2023/10/19 12:04:47;;;;;;;;;;;;;;;14.51;100.00;94494.59;5066646;28;20042;-72
2023/10/19 12:07:12;;;;;;;;;;;;;;;14.52;100.00;94493.53;5066185;28;19944;-72
2023/10/19 12:09:41;;;;;;;;;;;;;;;14.53;100.00;94503.00;5065816;28;19938;-72
2023/10/19 12:12:08;;;;;;;;;;;;;;;14.51;100.00;94513.88;5066304;28;19933;-72
2023/10/19 12:14:36;;;;;;;;;;;;;;;14.51;100.00;94518.34;5065728;28;19935;-78
2023/10/19 12:17:02;;;;;;;;;;;;;;;14.51;100.00;94507.78;5065793;28;20140;-69
2023/10/19 12:19:31;;;;;;;;;;;;;;;14.49;100.00;94505.47;5065435;28;20221;-69
2023/10/19 12:21:58;;;;;;;;;;;;;;;14.50;100.00;94507.00;5065636;28;19936;-69
2023/10/19 12:24:24;;;;;;;;;;;;;;;14.52;100.00;94507.50;5066031;28;19997;-70
2023/10/19 12:26:50;;;;;;;;;;;;;;;14.54;100.00;94502.72;5065503;28;19945;-70
2023/10/19 12:29:20;;;;;;;;;;;;;;;14.55;100.00;94514.03;5065410;28;19931;-69
2023/10/19 12:31:49;;;;;;;;;;;;;;;14.57;100.00;94514.56;5065460;28;20120;-70
2023/10/19 12:34:16;;;;;;;;;;;;;;;14.59;100.00;94512.44;5065359;28;19946;-77
2023/10/19 12:36:44;;;;;;;;;;;;;;;14.58;100.00;94530.13;5065895;28;19937;-77
2023/10/19 12:39:18;;;;;;;;;;;;;;;14.60;100.00;94514.78;5065160;28;19939;-77
2023/10/19 12:41:44;;;;;;;;;;;;;;;14.64;100.00;94524.78;5066042;28;19938;-77
2023/10/19 12:44:12;;;;;;;;;;;;;;;14.62;100.00;94506.59;5065317;28;19966;-77
2023/10/19 12:46:37;;;;;;;;;;;;;;;14.64;100.00;94530.03;5065127;28;20116;-77
2023/10/19 12:49:13;;;;;;;;;;;;;;;14.63;100.00;94518.69;5064876;28;19963;-77
2023/10/19 12:51:42;;;;;;;;;;;;;;;14.61;100.00;94516.38;5065513;28;19943;-72
2023/10/19 12:54:10;;;;;;;;;;;;;;;14.61;100.00;94520.84;5065529;28;19941;-73
2023/10/19 12:56:36;;;;;;;;;;;;;;;14.60;100.00;94514.00;5063862;28;19933;-74
2023/10/19 12:59:01;;;;;;;;;;;;;;;14.61;100.00;94507.66;5063917;28;20121;-73
2023/10/19 13:01:28;;;;;;;;;;;;;;;14.64;100.00;94503.66;5064780;28;19942;-73
2023/10/19 13:03:53;;;;;;;;;;;;;;;14.67;100.00;94492.53;5065542;28;19947;-73
2023/10/19 13:06:19;;;;;;;;;;;;;;;14.70;100.00;94491.94;5064651;28;19953;-74
2023/10/19 13:08:46;;;;;;;;;;;;;;;14.71;100.00;94490.88;5064767;28;19944;-76